Time;durP1;ratioP1;P1;durP2;ratioP2;P2;SDS_P1;SDS_P2;PMS_P1;PMS_P2;Temp;Humidity;BMP_temperature;BMP_pressure;BME280_temperature;BME280_humidity;BME280_pressure;Samples;Min_cycle;Max_cycle;Signal;HPM_P1;HPM_P2
2022/02/27 00:00:49;;;;;;;23.98;9.82;;;1.30;99.90;;;;;;5054251;28;20071;-49
2022/02/27 00:03:15;;;;;;;20.80;9.45;;;1.30;99.90;;;;;;5054208;28;20577;-49
2022/02/27 00:05:40;;;;;;;18.15;9.10;;;1.20;99.90;;;;;;5054293;28;20037;-48
2022/02/27 00:08:06;;;;;;;19.05;9.50;;;1.20;99.90;;;;;;5042790;28;20052;-48
2022/02/27 00:10:32;;;;;;;22.60;9.40;;;1.20;99.90;;;;;;5043593;28;20452;-49
2022/02/27 00:12:58;;;;;;;20.10;9.15;;;1.20;99.90;;;;;;5053381;28;20511;-49
2022/02/27 00:15:23;;;;;;;23.17;8.38;;;1.20;99.90;;;;;;5053761;28;20048;-49
2022/02/27 00:17:49;;;;;;;22.38;8.50;;;1.20;99.90;;;;;;5053839;28;20477;-49
2022/02/27 00:20:15;;;;;;;23.65;9.23;;;1.20;99.90;;;;;;5050843;28;20044;-49
2022/02/27 00:22:41;;;;;;;23.65;8.65;;;1.20;99.90;;;;;;5038092;28;20037;-50
2022/02/27 00:25:07;;;;;;;23.92;8.90;;;1.20;99.90;;;;;;5042725;28;20052;-52
2022/02/27 00:27:35;;;;;;;28.15;8.98;;;1.20;99.90;;;;;;5053479;28;20398;-49
2022/02/27 00:30:02;;;;;;;20.73;8.32;;;1.20;99.90;;;;;;5053613;28;20413;-50
2022/02/27 00:32:27;;;;;;;21.17;7.63;;;1.20;99.90;;;;;;5053506;28;20094;-53
2022/02/27 00:34:53;;;;;;;20.50;7.60;;;1.20;99.90;;;;;;5053172;28;20119;-53
2022/02/27 00:37:18;;;;;;;20.35;7.18;;;1.20;99.90;;;;;;5052818;28;20477;-53
2022/02/27 00:39:44;;;;;;;18.85;6.95;;;1.20;99.90;;;;;;5052920;28;20045;-52
2022/02/27 00:42:10;;;;;;;17.52;7.55;;;1.20;99.90;;;;;;5049940;28;20033;-52
2022/02/27 00:44:35;;;;;;;18.83;7.72;;;1.20;99.90;;;;;;5050066;28;20124;-52
2022/02/27 00:47:01;;;;;;;18.65;7.25;;;1.20;99.90;;;;;;5042956;28;20047;-52
2022/02/27 00:49:26;;;;;;;17.80;6.63;;;1.20;99.90;;;;;;5033275;28;20033;-52
2022/02/27 00:51:52;;;;;;;14.68;6.65;;;1.30;99.90;;;;;;5033245;28;20538;-54
2022/02/27 00:54:18;;;;;;;19.70;6.95;;;1.30;99.90;;;;;;5051284;28;20080;-54
2022/02/27 00:56:43;;;;;;;20.15;6.80;;;1.50;99.90;;;;;;5052444;28;20056;-54
2022/02/27 00:59:09;;;;;;;17.98;6.28;;;1.30;99.90;;;;;;5053042;28;20091;-53
2022/02/27 01:01:35;;;;;;;16.20;6.75;;;1.20;99.90;;;;;;5035063;28;20118;-55
2022/02/27 01:04:00;;;;;;;18.83;6.45;;;1.20;99.90;;;;;;5034958;28;20055;-54
2022/02/27 01:06:26;;;;;;;20.60;6.70;;;1.20;99.90;;;;;;5052495;28;20041;-53
2022/02/27 01:08:53;;;;;;;16.13;6.05;;;1.20;99.90;;;;;;5052530;28;20099;-53
2022/02/27 01:11:19;;;;;;;17.77;7.00;;;1.20;99.90;;;;;;5052696;28;20098;-54
2022/02/27 01:13:45;;;;;;;18.88;6.75;;;1.20;99.90;;;;;;5052712;28;20036;-53
2022/02/27 01:16:10;;;;;;;16.13;6.50;;;1.20;99.90;;;;;;5052423;28;20076;-54
2022/02/27 01:18:36;;;;;;;21.30;7.07;;;1.20;99.90;;;;;;5052642;28;20442;-53
2022/02/27 01:21:02;;;;;;;19.00;6.85;;;1.20;99.90;;;;;;5052195;28;20401;-52
2022/02/27 01:23:27;;;;;;;23.35;7.65;;;1.20;99.90;;;;;;5052304;28;20144;-53
2022/02/27 01:25:53;;;;;;;17.58;6.80;;;1.20;99.90;;;;;;5048976;28;20045;-53
2022/02/27 01:28:19;;;;;;;20.27;6.45;;;1.20;99.90;;;;;;5053055;28;20032;-51
2022/02/27 01:30:44;;;;;;;21.95;7.53;;;1.10;99.90;;;;;;5067904;28;20560;-53
2022/02/27 01:33:10;;;;;;;19.27;6.68;;;1.10;99.90;;;;;;5056569;28;20082;-53
2022/02/27 01:35:36;;;;;;;19.63;6.90;;;1.10;99.90;;;;;;5052298;28;20478;-51
2022/02/27 01:38:02;;;;;;;19.48;6.82;;;1.10;99.90;;;;;;5051857;28;20033;-54
2022/02/27 01:40:27;;;;;;;17.30;6.10;;;1.20;99.90;;;;;;5052275;28;20048;-52
2022/02/27 01:42:53;;;;;;;17.85;6.45;;;1.20;99.90;;;;;;5052051;28;20040;-52
2022/02/27 01:45:19;;;;;;;20.25;6.57;;;1.20;99.90;;;;;;5051949;28;20122;-53
2022/02/27 01:47:44;;;;;;;16.48;6.53;;;1.20;99.90;;;;;;5051398;28;20052;-53
2022/02/27 01:50:10;;;;;;;18.15;6.63;;;1.20;99.90;;;;;;5051978;28;20037;-53
2022/02/27 01:52:36;;;;;;;20.50;6.88;;;1.20;99.90;;;;;;5052443;28;20047;-51
2022/02/27 01:55:03;;;;;;;16.70;7.07;;;1.20;99.90;;;;;;5051726;28;20036;-54
2022/02/27 01:57:29;;;;;;;18.95;6.88;;;1.10;99.90;;;;;;5051604;28;20040;-52
2022/02/27 01:59:55;;;;;;;16.23;6.32;;;1.10;99.90;;;;;;5051678;28;20056;-52
2022/02/27 02:02:21;;;;;;;13.73;6.43;;;1.10;99.90;;;;;;5049352;28;20084;-50
2022/02/27 02:04:47;;;;;;;25.23;8.65;;;1.10;99.90;;;;;;5048079;28;20153;-53
2022/02/27 02:07:13;;;;;;;32.45;9.60;;;1.10;99.90;;;;;;5049969;28;20045;-50
2022/02/27 02:09:38;;;;;;;24.23;7.22;;;1.10;99.90;;;;;;5051775;28;20397;-50
2022/02/27 02:12:05;;;;;;;20.40;6.85;;;1.10;99.90;;;;;;5050444;28;20441;-51
2022/02/27 02:14:31;;;;;;;37.08;10.52;;;1.10;99.90;;;;;;5033478;28;20033;-49
2022/02/27 02:16:57;;;;;;;26.27;9.65;;;1.10;99.90;;;;;;5051483;28;20036;-50
2022/02/27 02:19:25;;;;;;;19.77;6.32;;;1.10;99.90;;;;;;5050037;28;20041;-50
2022/02/27 02:21:52;;;;;;;19.00;6.05;;;1.00;99.90;;;;;;5051256;28;20485;-51
2022/02/27 02:24:19;;;;;;;22.08;7.25;;;1.00;99.90;;;;;;5051228;28;20057;-50
2022/02/27 02:26:46;;;;;;;28.30;9.07;;;1.00;99.90;;;;;;5051466;28;20035;-51
2022/02/27 02:29:15;;;;;;;22.83;7.50;;;1.00;99.90;;;;;;5051324;28;20485;-52
2022/02/27 02:31:41;;;;;;;15.40;6.97;;;1.00;99.90;;;;;;5051497;28;20041;-50
2022/02/27 02:34:12;;;;;;;23.92;7.38;;;1.00;99.90;;;;;;5051326;28;20033;-50
2022/02/27 02:36:39;;;;;;;23.35;7.53;;;1.00;99.90;;;;;;5051122;28;20044;-49
2022/02/27 02:39:07;;;;;;;20.00;7.65;;;1.00;99.90;;;;;;5050025;28;20099;-53
2022/02/27 02:41:32;;;;;;;24.80;7.85;;;1.00;99.90;;;;;;5050245;28;20111;-49
2022/02/27 02:43:58;;;;;;;13.52;6.25;;;1.00;99.90;;;;;;5050996;28;20489;-49
2022/02/27 02:46:24;;;;;;;17.88;7.78;;;1.00;99.90;;;;;;5049052;28;20101;-51
2022/02/27 02:48:50;;;;;;;19.70;7.00;;;1.00;99.90;;;;;;5044857;28;20082;-53
2022/02/27 02:51:16;;;;;;;24.50;8.50;;;0.90;99.90;;;;;;5058235;28;20462;-50
2022/02/27 02:53:43;;;;;;;26.52;7.97;;;0.90;99.90;;;;;;5056217;28;20032;-51
2022/02/27 02:56:10;;;;;;;22.17;6.95;;;0.80;99.90;;;;;;5051264;28;20037;-50
2022/02/27 02:58:40;;;;;;;18.15;7.47;;;0.80;99.90;;;;;;5050950;28;20498;-50
2022/02/27 03:01:08;;;;;;;19.52;7.32;;;0.70;99.90;;;;;;5050969;28;20522;-50
2022/02/27 03:03:35;;;;;;;17.95;6.53;;;0.80;99.90;;;;;;5050728;28;20041;-50
2022/02/27 03:06:01;;;;;;;19.33;6.82;;;0.80;99.90;;;;;;5050800;28;20476;-50
2022/02/27 03:08:26;;;;;;;19.83;6.95;;;0.70;99.90;;;;;;5036113;28;20132;-50
2022/02/27 03:10:52;;;;;;;19.90;6.45;;;0.70;99.90;;;;;;5031214;28;20073;-50
2022/02/27 03:13:18;;;;;;;17.80;6.43;;;0.70;99.90;;;;;;5021832;28;20072;-50
2022/02/27 03:15:43;;;;;;;21.38;6.88;;;0.80;99.90;;;;;;5050958;28;20386;-49
2022/02/27 03:18:09;;;;;;;17.58;7.05;;;0.80;99.90;;;;;;5050708;28;20090;-50
2022/02/27 03:20:34;;;;;;;17.85;7.10;;;0.80;99.90;;;;;;5048418;28;20120;-50
2022/02/27 03:23:00;;;;;;;19.80;6.80;;;0.70;99.90;;;;;;5050971;28;20416;-50
2022/02/27 03:25:27;;;;;;;14.95;6.68;;;0.80;99.90;;;;;;5051073;28;20387;-51
2022/02/27 03:27:52;;;;;;;16.55;6.85;;;0.80;99.90;;;;;;5049542;28;20049;-51
2022/02/27 03:30:18;;;;;;;17.65;6.53;;;0.90;99.90;;;;;;5050579;28;20044;-52
2022/02/27 03:32:46;;;;;;;22.50;7.22;;;0.80;99.90;;;;;;5034806;28;20060;-50
2022/02/27 03:35:21;;;;;;;20.63;7.15;;;0.80;99.90;;;;;;5042240;28;20491;-50
2022/02/27 03:37:50;;;;;;;21.05;6.90;;;0.80;99.90;;;;;;5050663;28;20037;-51
2022/02/27 03:40:18;;;;;;;25.35;6.80;;;0.80;99.90;;;;;;5050933;28;20119;-52
2022/02/27 03:42:44;;;;;;;20.70;6.65;;;0.80;99.90;;;;;;5050801;28;20056;-53
2022/02/27 03:45:10;;;;;;;22.15;6.88;;;0.80;99.90;;;;;;5051104;28;20413;-53
2022/02/27 03:47:36;;;;;;;16.55;6.38;;;0.70;99.90;;;;;;5054199;28;20045;-51
2022/02/27 03:50:02;;;;;;;18.52;6.80;;;0.70;99.90;;;;;;5054395;28;20048;-51
2022/02/27 03:52:28;;;;;;;15.35;6.28;;;0.70;99.90;;;;;;5054369;28;20041;-53
2022/02/27 03:54:54;;;;;;;19.63;7.25;;;0.60;99.90;;;;;;5054214;28;20507;-52
2022/02/27 03:57:19;;;;;;;20.38;6.68;;;0.60;99.90;;;;;;5053937;28;20055;-50
2022/02/27 03:59:45;;;;;;;20.63;6.55;;;0.60;99.90;;;;;;5053903;28;20041;-51
2022/02/27 04:02:11;;;;;;;18.13;6.65;;;0.60;99.90;;;;;;5052807;28;20646;-49
2022/02/27 04:04:37;;;;;;;21.63;6.75;;;0.60;99.90;;;;;;5053754;28;20502;-50
2022/02/27 04:07:03;;;;;;;24.38;6.80;;;0.60;99.90;;;;;;5052598;28;20047;-50
2022/02/27 04:09:29;;;;;;;20.45;6.90;;;0.60;99.90;;;;;;5052302;28;20045;-48
2022/02/27 04:11:55;;;;;;;25.23;6.47;;;0.60;99.90;;;;;;5052521;28;20566;-52
2022/02/27 04:14:21;;;;;;;18.50;7.47;;;0.60;99.90;;;;;;5053524;28;20037;-51
2022/02/27 04:16:46;;;;;;;19.13;6.68;;;0.60;99.90;;;;;;5053206;28;20635;-48
2022/02/27 04:19:12;;;;;;;19.08;6.90;;;0.60;99.90;;;;;;5053598;28;20044;-47
2022/02/27 04:21:37;;;;;;;20.55;7.60;;;0.60;99.90;;;;;;5053822;28;20048;-50
2022/02/27 04:24:03;;;;;;;17.95;7.25;;;0.70;99.90;;;;;;5053425;28;20041;-53
2022/02/27 04:26:29;;;;;;;23.92;7.30;;;0.60;99.90;;;;;;5053533;28;20103;-52
2022/02/27 04:28:54;;;;;;;26.08;7.57;;;0.60;99.90;;;;;;5053382;28;20662;-51
2022/02/27 04:31:20;;;;;;;17.50;7.35;;;0.60;99.90;;;;;;5053278;28;20044;-49
2022/02/27 04:33:45;;;;;;;19.70;7.75;;;0.60;99.90;;;;;;5053601;28;20037;-50
2022/02/27 04:36:11;;;;;;;28.55;7.63;;;0.60;99.90;;;;;;5053268;28;20114;-49
2022/02/27 04:38:37;;;;;;;24.48;8.10;;;0.60;99.90;;;;;;5052350;28;20111;-49
2022/02/27 04:41:03;;;;;;;19.73;7.95;;;0.60;99.90;;;;;;5053247;28;20120;-50
2022/02/27 04:43:28;;;;;;;20.52;8.40;;;0.60;99.90;;;;;;5053113;28;20086;-51
2022/02/27 04:45:54;;;;;;;22.50;7.82;;;0.60;99.90;;;;;;5053079;28;20040;-51
2022/02/27 04:48:19;;;;;;;21.92;7.88;;;0.60;99.90;;;;;;5053104;28;20037;-53
2022/02/27 04:50:45;;;;;;;25.50;7.35;;;0.70;99.90;;;;;;5053212;28;20098;-49
2022/02/27 04:53:11;;;;;;;31.92;7.90;;;0.60;99.90;;;;;;5053021;28;20029;-51
2022/02/27 04:55:36;;;;;;;14.65;7.47;;;0.70;99.90;;;;;;5052812;28;20056;-49
2022/02/27 04:58:03;;;;;;;26.60;8.23;;;0.80;99.90;;;;;;5052524;28;20410;-49
2022/02/27 05:00:28;;;;;;;22.95;7.22;;;0.80;99.90;;;;;;5034992;28;20049;-49
2022/02/27 05:02:54;;;;;;;24.50;8.10;;;0.70;99.90;;;;;;5052085;28;20036;-52
2022/02/27 05:05:19;;;;;;;18.33;7.45;;;0.70;99.90;;;;;;5052825;28;20040;-50
2022/02/27 05:07:45;;;;;;;22.80;8.30;;;0.60;99.90;;;;;;5052750;28;20033;-49
2022/02/27 05:10:10;;;;;;;23.13;7.80;;;0.60;99.90;;;;;;5052589;28;20052;-51
2022/02/27 05:12:38;;;;;;;23.17;7.70;;;0.60;99.90;;;;;;5052671;28;20040;-50
2022/02/27 05:15:06;;;;;;;20.10;7.68;;;0.60;99.90;;;;;;5050872;28;20047;-51
2022/02/27 05:17:32;;;;;;;21.67;8.02;;;0.50;99.90;;;;;;5051085;28;20033;-51
2022/02/27 05:19:57;;;;;;;23.13;8.52;;;0.60;99.90;;;;;;5052567;28;20036;-50
2022/02/27 05:22:23;;;;;;;26.77;8.18;;;0.60;99.90;;;;;;5052653;28;20063;-51
2022/02/27 05:24:49;;;;;;;22.88;8.18;;;0.50;99.90;;;;;;5052961;28;20037;-52
2022/02/27 05:27:14;;;;;;;15.57;7.38;;;0.50;99.90;;;;;;5052202;28;20111;-50
2022/02/27 05:29:40;;;;;;;18.58;7.90;;;0.50;99.90;;;;;;5052383;28;20404;-49
2022/02/27 05:32:06;;;;;;;19.13;8.35;;;0.50;99.90;;;;;;5052241;28;20039;-51
2022/02/27 05:34:32;;;;;;;19.90;7.97;;;0.50;99.90;;;;;;5052639;28;20036;-52
2022/02/27 05:36:57;;;;;;;19.65;8.00;;;0.50;99.90;;;;;;5052094;28;20094;-49
2022/02/27 05:39:23;;;;;;;21.15;7.32;;;0.60;99.90;;;;;;5052280;28;20032;-52
2022/02/27 05:41:49;;;;;;;21.30;7.18;;;0.60;99.90;;;;;;5052038;28;20033;-50
2022/02/27 05:44:14;;;;;;;19.00;7.22;;;0.60;99.90;;;;;;5052063;28;20436;-53
2022/02/27 05:46:40;;;;;;;17.48;6.85;;;0.60;99.90;;;;;;5050771;28;20622;-50
2022/02/27 05:49:05;;;;;;;18.95;7.35;;;0.60;99.90;;;;;;5051942;28;20045;-49
2022/02/27 05:51:31;;;;;;;19.58;7.80;;;0.70;99.90;;;;;;5052018;28;20067;-50
2022/02/27 05:53:56;;;;;;;22.90;7.45;;;0.80;99.90;;;;;;5051837;28;20448;-51
2022/02/27 05:56:22;;;;;;;19.48;7.97;;;0.80;99.90;;;;;;5051747;28;20116;-51
2022/02/27 05:58:49;;;;;;;20.02;8.15;;;0.80;99.90;;;;;;5051708;28;20033;-49
2022/02/27 06:01:14;;;;;;;22.15;8.32;;;0.90;99.90;;;;;;5051764;28;20123;-49
2022/02/27 06:03:40;;;;;;;18.30;7.35;;;0.90;99.90;;;;;;5051918;28;20123;-49
2022/02/27 06:06:05;;;;;;;17.15;6.88;;;0.90;99.90;;;;;;5051592;28;20045;-51
2022/02/27 06:08:31;;;;;;;22.05;7.35;;;0.90;99.90;;;;;;5050185;28;20170;-50
2022/02/27 06:10:57;;;;;;;20.90;7.68;;;0.90;99.90;;;;;;5051512;28;20047;-50
2022/02/27 06:13:22;;;;;;;22.33;7.43;;;0.90;99.90;;;;;;5051548;28;20049;-51
2022/02/27 06:15:48;;;;;;;19.02;7.75;;;0.90;99.90;;;;;;5051687;28;20643;-53
2022/02/27 06:18:13;;;;;;;20.80;8.20;;;0.80;99.90;;;;;;5051481;28;20033;-51
2022/02/27 06:20:39;;;;;;;20.60;7.45;;;0.80;99.90;;;;;;5051446;28;20041;-53
2022/02/27 06:23:04;;;;;;;25.52;9.27;;;0.90;99.90;;;;;;5051529;28;20536;-53
2022/02/27 06:25:30;;;;;;;18.70;8.20;;;0.90;99.90;;;;;;5051525;28;20116;-51
2022/02/27 06:27:56;;;;;;;23.98;8.18;;;0.90;99.90;;;;;;5051159;28;20041;-53
2022/02/27 06:30:23;;;;;;;20.15;8.10;;;0.90;99.90;;;;;;5049812;28;20045;-52
2022/02/27 06:32:50;;;;;;;22.30;7.85;;;0.90;99.90;;;;;;5051602;28;20116;-53
2022/02/27 06:35:19;;;;;;;22.73;8.77;;;0.90;99.90;;;;;;5044458;28;20033;-51
2022/02/27 06:37:45;;;;;;;21.58;7.82;;;0.90;99.90;;;;;;5049314;28;20065;-52
2022/02/27 06:40:12;;;;;;;17.65;8.68;;;0.90;99.90;;;;;;5047901;28;20088;-53
2022/02/27 06:42:39;;;;;;;21.80;8.00;;;0.90;99.90;;;;;;5049887;28;20523;-53
2022/02/27 06:45:06;;;;;;;17.85;8.10;;;0.90;99.90;;;;;;5051290;28;20096;-53
2022/02/27 06:47:32;;;;;;;21.50;8.43;;;1.00;99.90;;;;;;5051061;28;20041;-48
2022/02/27 06:49:58;;;;;;;21.08;8.10;;;1.00;99.90;;;;;;5051132;28;20048;-53
2022/02/27 06:52:24;;;;;;;20.52;7.97;;;1.00;99.90;;;;;;5051226;28;20037;-50
2022/02/27 06:54:49;;;;;;;23.10;7.78;;;1.00;99.90;;;;;;5049927;28;20037;-53
2022/02/27 06:57:15;;;;;;;19.35;8.00;;;1.10;99.90;;;;;;5050869;28;20375;-53
2022/02/27 06:59:41;;;;;;;16.55;7.60;;;1.00;99.90;;;;;;5051124;28;20090;-52
2022/02/27 07:02:07;;;;;;;20.23;8.10;;;1.10;99.90;;;;;;5050495;28;20533;-50
2022/02/27 07:04:33;;;;;;;19.45;8.07;;;1.10;99.90;;;;;;5051273;28;20044;-50
2022/02/27 07:06:59;;;;;;;21.23;8.25;;;1.10;99.90;;;;;;5037983;28;20028;-51
2022/02/27 07:09:25;;;;;;;19.77;8.07;;;1.10;99.90;;;;;;5038866;28;20064;-49
2022/02/27 07:11:52;;;;;;;19.30;7.70;;;1.20;99.90;;;;;;5021948;28;20033;-49
2022/02/27 07:14:18;;;;;;;26.15;8.07;;;1.20;99.90;;;;;;5046442;28;20123;-50
2022/02/27 07:16:44;;;;;;;20.50;7.90;;;1.20;99.90;;;;;;5044723;28;20565;-49
2022/02/27 07:19:10;;;;;;;15.52;8.23;;;1.20;99.90;;;;;;5062291;28;20107;-50
2022/02/27 07:21:35;;;;;;;23.73;8.07;;;1.20;99.90;;;;;;5074940;28;20040;-49
2022/02/27 07:24:01;;;;;;;18.88;7.72;;;1.30;99.90;;;;;;5054534;28;20076;-50
2022/02/27 07:26:26;;;;;;;18.35;7.82;;;1.30;99.90;;;;;;5052886;28;20090;-49
2022/02/27 07:28:52;;;;;;;21.70;8.38;;;1.40;99.90;;;;;;5043944;28;20516;-50
2022/02/27 07:31:18;;;;;;;23.48;8.52;;;1.50;99.90;;;;;;5055871;28;20037;-49
2022/02/27 07:33:44;;;;;;;19.02;7.15;;;1.50;99.90;;;;;;5054431;28;20039;-50
2022/02/27 07:36:10;;;;;;;23.95;8.02;;;1.60;99.90;;;;;;5054452;28;20553;-50
2022/02/27 07:38:36;;;;;;;22.15;7.18;;;1.70;99.90;;;;;;5054407;28;20482;-50
2022/02/27 07:41:02;;;;;;;23.50;8.23;;;1.80;99.90;;;;;;5054533;28;20090;-50
2022/02/27 07:43:27;;;;;;;22.65;7.60;;;1.90;99.90;;;;;;5051561;28;20498;-49
2022/02/27 07:45:53;;;;;;;19.58;7.60;;;1.90;99.90;;;;;;5051465;28;20529;-47
2022/02/27 07:48:19;;;;;;;21.10;7.90;;;2.00;99.90;;;;;;5053888;28;20040;-50
2022/02/27 07:50:45;;;;;;;22.92;7.97;;;2.00;99.90;;;;;;5054176;28;20044;-50
2022/02/27 07:53:10;;;;;;;18.08;7.28;;;2.20;99.90;;;;;;5054791;28;20040;-50
2022/02/27 07:55:37;;;;;;;17.83;7.03;;;2.20;99.90;;;;;;5054185;28;20043;-49
2022/02/27 07:58:02;;;;;;;15.32;7.40;;;2.40;99.90;;;;;;5052441;28;20041;-48
2022/02/27 08:00:28;;;;;;;20.73;7.75;;;2.40;99.90;;;;;;5047270;28;20045;-49
2022/02/27 08:02:54;;;;;;;22.48;6.95;;;2.40;99.90;;;;;;5050059;28;20515;-51
2022/02/27 08:05:20;;;;;;;18.33;7.10;;;2.60;99.90;;;;;;5042433;28;20041;-52
2022/02/27 08:07:46;;;;;;;16.63;7.13;;;2.60;99.90;;;;;;5050826;28;20102;-50
2022/02/27 08:10:12;;;;;;;22.73;7.95;;;2.70;99.90;;;;;;5062229;28;20045;-49
2022/02/27 08:12:45;;;;;;;21.90;6.93;;;2.80;99.90;;;;;;5052801;28;20036;-50
2022/02/27 08:15:12;;;;;;;18.42;6.63;;;2.90;99.90;;;;;;5052437;28;20524;-51
2022/02/27 08:17:38;;;;;;;23.48;7.28;;;3.10;99.90;;;;;;5043864;28;20068;-48
2022/02/27 08:20:04;;;;;;;22.20;7.40;;;3.10;99.90;;;;;;5041783;28;20076;-52
2022/02/27 08:22:30;;;;;;;15.15;6.03;;;3.20;99.90;;;;;;5049491;28;20049;-50
2022/02/27 08:24:55;;;;;;;21.73;7.50;;;3.30;99.90;;;;;;5057699;28;20048;-52
2022/02/27 08:27:21;;;;;;;20.67;8.07;;;3.30;99.90;;;;;;5053483;28;20041;-50
2022/02/27 08:29:49;;;;;;;18.23;6.78;;;3.30;99.90;;;;;;5053038;28;20061;-49
2022/02/27 08:32:16;;;;;;;20.75;7.90;;;3.40;99.90;;;;;;5051387;28;20125;-50
2022/02/27 08:34:41;;;;;;;14.60;6.22;;;3.50;99.90;;;;;;5050492;28;20029;-49
2022/02/27 08:37:08;;;;;;;21.02;7.03;;;3.50;99.90;;;;;;5049581;28;20515;-50
2022/02/27 08:39:34;;;;;;;17.20;6.93;;;3.60;99.90;;;;;;5035812;28;20083;-53
2022/02/27 08:42:01;;;;;;;17.05;7.38;;;3.60;99.90;;;;;;5053450;28;20113;-51
2022/02/27 08:44:28;;;;;;;17.13;6.65;;;3.70;99.90;;;;;;5053345;28;20044;-52
2022/02/27 08:46:54;;;;;;;21.90;6.95;;;3.70;99.90;;;;;;5041772;28;20044;-52
2022/02/27 08:49:20;;;;;;;17.63;7.47;;;3.80;99.90;;;;;;5046145;28;20087;-51
2022/02/27 08:51:47;;;;;;;15.98;7.13;;;3.90;99.90;;;;;;5053145;28;20102;-51
2022/02/27 08:54:13;;;;;;;16.02;6.95;;;4.00;99.90;;;;;;5049355;28;20040;-52
2022/02/27 08:56:39;;;;;;;21.00;7.63;;;4.10;99.90;;;;;;5032861;28;20046;-50
2022/02/27 08:59:04;;;;;;;19.33;6.85;;;4.10;99.90;;;;;;5038901;28;20044;-51
2022/02/27 09:01:30;;;;;;;22.50;7.30;;;4.10;99.90;;;;;;5052083;28;20037;-50
2022/02/27 09:03:56;;;;;;;19.60;6.88;;;4.20;99.90;;;;;;5051494;28;20571;-49
2022/02/27 09:06:21;;;;;;;16.75;6.97;;;4.30;99.90;;;;;;5049475;28;20041;-49
2022/02/27 09:08:47;;;;;;;16.98;6.47;;;4.30;99.90;;;;;;5041318;28;20045;-52
2022/02/27 09:11:13;;;;;;;16.77;6.53;;;4.50;99.90;;;;;;5051425;28;20094;-52
2022/02/27 09:13:39;;;;;;;15.73;6.57;;;4.50;99.90;;;;;;5049059;28;20033;-53
2022/02/27 09:16:05;;;;;;;20.08;7.25;;;4.60;99.90;;;;;;5056432;28;20490;-49
2022/02/27 09:18:31;;;;;;;20.08;8.38;;;4.50;99.90;;;;;;5049941;28;20041;-52
2022/02/27 09:20:56;;;;;;;19.95;7.43;;;4.60;99.90;;;;;;5052121;28;20051;-53
2022/02/27 09:23:22;;;;;;;18.42;6.85;;;4.70;99.90;;;;;;5052576;28;20063;-52
2022/02/27 09:25:48;;;;;;;14.35;6.70;;;4.80;99.90;;;;;;5052630;28;20075;-52
2022/02/27 09:28:13;;;;;;;19.85;6.90;;;4.90;99.90;;;;;;5051549;28;20379;-53
2022/02/27 09:30:39;;;;;;;15.80;6.90;;;4.90;99.90;;;;;;5051117;28;20475;-51
2022/02/27 09:33:04;;;;;;;20.38;6.78;;;5.00;99.90;;;;;;5052197;28;20076;-51
2022/02/27 09:35:30;;;;;;;15.88;6.82;;;5.00;99.90;;;;;;5052779;28;20040;-51
2022/02/27 09:37:57;;;;;;;13.43;6.40;;;5.00;99.90;;;;;;5052271;28;20041;-52
2022/02/27 09:40:24;;;;;;;18.70;7.50;;;5.10;99.90;;;;;;5046622;28;20088;-50
2022/02/27 09:42:52;;;;;;;17.90;6.78;;;5.20;99.90;;;;;;5056850;28;20059;-48
2022/02/27 09:45:18;;;;;;;17.20;6.65;;;5.30;99.90;;;;;;5053695;28;20500;-53
2022/02/27 09:47:44;;;;;;;17.05;7.53;;;5.30;99.90;;;;;;5068061;28;20063;-52
2022/02/27 09:50:10;;;;;;;14.43;6.25;;;5.40;99.90;;;;;;5052348;28;20490;-52
2022/02/27 09:52:35;;;;;;;12.55;6.70;;;5.40;99.90;;;;;;5052438;28;20101;-52
2022/02/27 09:55:01;;;;;;;19.17;7.03;;;5.50;99.90;;;;;;5050858;28;20037;-51
2022/02/27 09:57:26;;;;;;;16.67;7.50;;;5.50;99.90;;;;;;5051204;28;20036;-51
2022/02/27 09:59:52;;;;;;;16.20;6.70;;;5.50;99.90;;;;;;5051544;28;20107;-52
2022/02/27 10:02:17;;;;;;;18.15;6.55;;;5.60;99.90;;;;;;5051697;28;20075;-52
2022/02/27 10:04:48;;;;;;;18.35;6.80;;;5.70;99.90;;;;;;5051841;28;20055;-51
2022/02/27 10:07:18;;;;;;;14.70;6.80;;;5.70;99.90;;;;;;5050923;28;20137;-53
2022/02/27 10:09:46;;;;;;;12.75;5.72;;;5.90;99.90;;;;;;5051083;28;20029;-51
2022/02/27 10:12:16;;;;;;;18.08;6.80;;;5.90;99.90;;;;;;5047321;28;20033;-50
2022/02/27 10:14:59;;;;;;;12.63;6.53;;;6.00;99.90;;;;;;5049100;28;20051;-53
2022/02/27 10:17:29;;;;;;;17.17;6.78;;;6.10;99.90;;;;;;5045117;28;20041;-52
2022/02/27 10:19:55;;;;;;;17.27;6.63;;;6.20;99.90;;;;;;5051582;28;20556;-49
2022/02/27 10:22:33;;;;;;;17.00;7.22;;;6.20;99.90;;;;;;5051618;28;20041;-52
2022/02/27 10:24:59;;;;;;;12.63;6.70;;;6.30;99.90;;;;;;5050482;28;20040;-52
2022/02/27 10:27:48;;;;;;;16.08;6.65;;;6.30;99.90;;;;;;5051199;28;20036;-49
2022/02/27 10:30:28;;;;;;;16.05;6.45;;;6.40;99.90;;;;;;5051514;28;20115;-52
2022/02/27 10:33:20;;;;;;;17.35;5.93;;;6.50;99.90;;;;;;5051050;28;20120;-52
2022/02/27 10:35:51;;;;;;;17.63;6.78;;;6.50;99.90;;;;;;5032454;28;20060;-49
2022/02/27 10:41:10;;;;;;;15.10;7.03;;;6.60;99.90;;;;;;5052928;28;20052;-51
2022/02/27 10:43:43;;;;;;;17.52;6.00;;;6.70;99.90;;;;;;5050349;28;20049;-53
2022/02/27 10:46:09;;;;;;;15.52;5.68;;;6.90;98.70;;;;;;5049685;28;20051;-51
2022/02/27 10:48:34;;;;;;;14.93;6.70;;;6.80;98.90;;;;;;5051573;28;20052;-53
2022/02/27 10:51:05;;;;;;;14.07;6.03;;;6.80;99.30;;;;;;5051366;28;20041;-53
2022/02/27 10:53:35;;;;;;;11.88;5.95;;;6.90;98.90;;;;;;5048117;28;20533;-51
2022/02/27 10:56:07;;;;;;;16.13;5.80;;;6.90;99.40;;;;;;5057857;28;20064;-50
2022/02/27 10:59:10;;;;;;;15.73;5.90;;;7.00;97.00;;;;;;5075295;28;20385;-51
2022/02/27 11:01:38;;;;;;;14.27;5.55;;;7.10;96.90;;;;;;5075320;28;20048;-54
2022/02/27 11:04:04;;;;;;;13.65;5.20;;;7.10;96.30;;;;;;5075248;28;20037;-54
2022/02/27 11:06:30;;;;;;;13.02;5.32;;;7.20;94.30;;;;;;5073728;28;20067;-53
2022/02/27 11:08:58;;;;;;;17.27;5.22;;;7.30;93.70;;;;;;5053800;28;20033;-54
2022/02/27 11:11:24;;;;;;;9.60;4.55;;;7.30;93.80;;;;;;5055099;28;20053;-56
2022/02/27 11:13:51;;;;;;;10.55;4.28;;;7.30;92.10;;;;;;5054828;28;20401;-54
2022/02/27 11:16:17;;;;;;;11.02;4.20;;;7.40;90.30;;;;;;5054616;28;20540;-51
2022/02/27 11:18:43;;;;;;;11.80;4.15;;;7.40;86.30;;;;;;5051483;28;20109;-53
2022/02/27 11:21:10;;;;;;;12.52;4.55;;;7.50;82.70;;;;;;5069257;28;20095;-51
2022/02/27 11:23:36;;;;;;;7.82;3.63;;;7.40;82.80;;;;;;5044802;28;20033;-52
2022/02/27 11:26:03;;;;;;;10.23;4.28;;;7.40;82.70;;;;;;5045739;28;20044;-50
2022/02/27 11:28:31;;;;;;;8.32;4.00;;;7.50;81.60;;;;;;5052817;28;20051;-51
2022/02/27 11:31:02;;;;;;;9.52;3.72;;;7.50;84.50;;;;;;5049543;28;20444;-55
2022/02/27 11:33:29;;;;;;;13.70;4.13;;;7.60;84.50;;;;;;5053113;28;20494;-51
2022/02/27 11:35:56;;;;;;;9.73;4.10;;;7.60;80.40;;;;;;5048239;28;20379;-52
2022/02/27 11:38:30;;;;;;;11.68;4.20;;;7.60;83.30;;;;;;5039582;28;20037;-54
2022/02/27 11:41:16;;;;;;;9.60;4.30;;;7.60;84.50;;;;;;5040437;28;20355;-52
2022/02/27 11:43:50;;;;;;;8.70;3.90;;;7.70;81.90;;;;;;5037223;28;20040;-56
2022/02/27 11:46:17;;;;;;;11.80;4.05;;;7.70;79.70;;;;;;5056079;28;20037;-55
2022/02/27 11:48:56;;;;;;;11.65;4.93;;;7.70;80.50;;;;;;5050140;28;20048;-56
2022/02/27 11:51:37;;;;;;;11.38;4.00;;;7.70;81.10;;;;;;5052736;28;20497;-55
2022/02/27 11:54:14;;;;;;;8.10;3.47;;;7.70;83.20;;;;;;5051164;28;20522;-56
2022/02/27 11:57:04;;;;;;;8.80;4.03;;;7.70;81.00;;;;;;5053303;28;20044;-55
2022/02/27 11:59:53;;;;;;;10.43;4.85;;;7.70;80.40;;;;;;5048689;28;20076;-55
2022/02/27 12:02:21;;;;;;;11.05;4.00;;;7.70;85.00;;;;;;5043534;28;20049;-55
2022/02/27 12:04:49;;;;;;;7.90;3.80;;;7.80;80.90;;;;;;5035728;28;20056;-53
2022/02/27 12:07:15;;;;;;;12.15;4.10;;;7.80;80.00;;;;;;5051810;28;20132;-54
2022/02/27 12:10:03;;;;;;;9.30;3.72;;;7.90;82.00;;;;;;5053028;28;20168;-55
2022/02/27 12:12:38;;;;;;;8.60;3.60;;;8.00;80.60;;;;;;5052853;28;20041;-55
2022/02/27 12:15:24;;;;;;;7.30;3.00;;;8.00;80.40;;;;;;5053809;28;20041;-56
2022/02/27 12:18:02;;;;;;;7.97;3.90;;;8.10;75.50;;;;;;5054569;28;20029;-54
2022/02/27 12:20:43;;;;;;;7.78;3.50;;;8.10;75.50;;;;;;5053006;28;20080;-53
2022/02/27 12:23:27;;;;;;;11.23;3.40;;;8.20;74.80;;;;;;5053266;28;20080;-54
2022/02/27 12:25:53;;;;;;;11.02;3.63;;;8.20;74.80;;;;;;5053834;28;20044;-54
2022/02/27 12:28:49;;;;;;;8.35;3.25;;;8.20;77.10;;;;;;5053533;28;20441;-52
2022/02/27 12:31:22;;;;;;;7.43;3.55;;;8.30;75.00;;;;;;5046869;28;20049;-50
2022/02/27 12:33:49;;;;;;;7.00;2.80;;;8.30;73.10;;;;;;5060412;28;20112;-50
2022/02/27 12:36:36;;;;;;;6.65;3.20;;;8.30;71.30;;;;;;5047868;28;20037;-50
2022/02/27 12:39:08;;;;;;;8.15;4.00;;;8.30;74.70;;;;;;5048599;28;20041;-50
2022/02/27 12:41:35;;;;;;;;;;;8.30;73.90;;;;;;5051413;28;20041;-50
2022/02/27 12:44:02;;;;;;;7.43;3.30;;;8.30;73.30;;;;;;5052971;28;19921;-50
2022/02/27 12:46:28;;;;;;;10.00;3.67;;;8.40;71.60;;;;;;5051658;28;20053;-51
2022/02/27 12:51:40;;;;;;;9.77;3.22;;;8.40;74.20;;;;;;5057470;28;20052;-50
2022/02/27 12:54:21;;;;;;;6.55;3.10;;;8.40;74.80;;;;;;5052976;28;20041;-52